createdAt,value
2023-03-15T00:01:42.644Z,5.20
2023-03-15T00:04:45.894Z,6.47
2023-03-15T00:07:49.319Z,3.83
2023-03-15T00:10:52.576Z,3.90
2023-03-15T00:13:55.841Z,2.45
2023-03-15T00:16:59.000Z,3.63
2023-03-15T00:20:02.980Z,3.60
2023-03-15T00:23:06.262Z,3.50
2023-03-15T00:26:09.473Z,3.50
2023-03-15T00:29:12.809Z,3.05
2023-03-15T00:32:16.381Z,3.10
2023-03-15T00:35:19.671Z,3.17
2023-03-15T00:38:22.927Z,2.00
2023-03-15T00:41:26.302Z,2.03
2023-03-15T00:44:29.828Z,2.15
2023-03-15T00:47:33.192Z,3.08
2023-03-15T00:50:36.428Z,2.33
2023-03-15T00:53:42.229Z,2.13
2023-03-15T00:56:45.453Z,2.92
2023-03-15T00:59:48.933Z,3.10
2023-03-15T01:02:54.420Z,2.70
2023-03-15T01:05:57.700Z,1.67
2023-03-15T01:09:02.448Z,1.38
2023-03-15T01:15:12.640Z,2.90
2023-03-15T01:18:16.247Z,2.30
2023-03-15T01:21:20.393Z,2.22
2023-03-15T01:27:27.032Z,1.95
2023-03-15T01:30:30.260Z,1.88
2023-03-15T01:33:33.596Z,1.52
2023-03-15T01:36:37.036Z,1.45
2023-03-15T01:39:40.278Z,1.98
2023-03-15T01:43:06.151Z,3.03
2023-03-15T01:46:20.981Z,2.10
2023-03-15T01:49:29.431Z,2.85
2023-03-15T01:52:38.689Z,4.38
2023-03-15T01:55:42.702Z,2.97
2023-03-15T01:58:51.977Z,2.15
2023-03-15T02:01:56.820Z,3.45
2023-03-15T02:05:12.706Z,2.88
2023-03-15T02:08:18.788Z,3.22
2023-03-15T02:11:26.643Z,2.60
2023-03-15T02:14:32.918Z,2.80
2023-03-15T02:17:44.163Z,2.42
2023-03-15T02:21:01.988Z,2.35
2023-03-15T02:24:30.404Z,3.15
2023-03-15T02:27:38.150Z,2.70
2023-03-15T02:33:50.261Z,2.97
2023-03-15T02:36:55.588Z,2.60
2023-03-15T02:39:59.631Z,3.35
2023-03-15T02:43:08.931Z,2.83
2023-03-15T02:46:13.642Z,2.47
2023-03-15T02:52:23.614Z,3.37
2023-03-15T02:55:27.364Z,3.13
2023-03-15T03:01:39.024Z,1.05
2023-03-15T03:04:46.588Z,2.15
2023-03-15T03:07:51.365Z,2.30
2023-03-15T03:10:55.034Z,1.40
2023-03-15T03:13:59.439Z,1.20
2023-03-15T03:17:02.955Z,1.25
2023-03-15T03:20:10.818Z,6.57
2023-03-15T03:23:19.268Z,2.13
2023-03-15T03:26:22.757Z,1.42
2023-03-15T03:29:27.436Z,2.08
2023-03-15T03:32:32.875Z,1.48
2023-03-15T03:35:36.080Z,1.70
2023-03-15T03:38:44.231Z,1.50
2023-03-15T03:41:47.763Z,2.03
2023-03-15T03:44:51.890Z,2.53
2023-03-15T03:47:55.901Z,2.55
2023-03-15T03:51:00.294Z,2.33
2023-03-15T03:54:03.709Z,2.25
2023-03-15T03:57:06.905Z,2.83
2023-03-15T04:00:17.344Z,2.72
2023-03-15T04:03:27.963Z,2.70
2023-03-15T04:06:46.352Z,5.05
2023-03-15T04:09:53.966Z,2.75
2023-03-15T04:12:58.383Z,2.60
2023-03-15T04:16:04.447Z,2.13
2023-03-15T04:19:16.302Z,2.30
2023-03-15T04:22:19.708Z,2.22
2023-03-15T04:25:38.197Z,2.40
2023-03-15T04:28:46.907Z,3.20
2023-03-15T04:32:10.907Z,2.55
2023-03-15T04:35:43.256Z,2.42
2023-03-15T04:39:06.665Z,1.10
2023-03-15T04:42:20.825Z,2.33
2023-03-15T04:45:42.039Z,2.92
2023-03-15T04:49:05.709Z,1.45
2023-03-15T04:52:27.198Z,1.92
2023-03-15T04:56:08.774Z,1.52
2023-03-15T05:03:01.475Z,1.38
2023-03-15T05:06:21.960Z,2.05
2023-03-15T05:09:55.726Z,1.40
2023-03-15T05:13:13.567Z,1.50
2023-03-15T05:16:49.880Z,1.35
2023-03-15T05:20:19.774Z,2.60
2023-03-15T05:23:52.347Z,2.50
2023-03-15T05:27:14.308Z,1.48
2023-03-15T05:30:41.598Z,1.70
2023-03-15T05:33:57.685Z,1.40
2023-03-15T05:37:24.126Z,2.03
2023-03-15T05:40:47.110Z,2.05
2023-03-15T05:44:08.679Z,1.98
2023-03-15T05:47:33.261Z,1.80
2023-03-15T05:51:13.818Z,2.55
2023-03-15T05:54:33.394Z,2.03
2023-03-15T05:57:57.646Z,1.98
2023-03-15T06:01:20.289Z,1.90
2023-03-15T06:04:43.249Z,2.17
2023-03-15T06:07:51.531Z,1.50
2023-03-15T06:10:56.296Z,1.42
2023-03-15T06:13:59.597Z,1.60
2023-03-15T06:17:15.993Z,1.20
2023-03-15T06:20:20.883Z,1.65
2023-03-15T06:23:24.672Z,2.15
2023-03-15T06:26:28.746Z,0.90
2023-03-15T06:29:38.134Z,1.50
2023-03-15T06:32:42.008Z,1.65
2023-03-15T06:35:47.495Z,1.92
2023-03-15T06:38:50.782Z,1.40
2023-03-15T06:41:59.177Z,1.83
2023-03-15T06:45:04.457Z,1.20
2023-03-15T06:48:08.413Z,1.58
2023-03-15T06:51:11.909Z,1.50
2023-03-15T06:54:15.349Z,1.90
2023-03-15T06:57:18.676Z,1.70
2023-03-15T07:00:23.347Z,1.73
2023-03-15T07:03:26.793Z,1.80
2023-03-15T07:06:30.274Z,1.83
2023-03-15T07:09:33.966Z,1.05
2023-03-15T07:12:37.386Z,30.52
2023-03-15T07:15:40.712Z,2.00
2023-03-15T07:18:44.059Z,1.63
2023-03-15T07:21:47.562Z,1.60
2023-03-15T07:24:50.847Z,1.70
2023-03-15T07:27:54.681Z,1.35
2023-03-15T07:31:00.484Z,1.00
2023-03-15T07:34:03.745Z,1.15
2023-03-15T07:37:07.141Z,0.85
2023-03-15T07:40:11.525Z,1.75
2023-03-15T07:43:14.873Z,1.42
2023-03-15T07:46:18.459Z,1.08
2023-03-15T07:49:21.916Z,1.80
2023-03-15T07:52:25.928Z,1.50
2023-03-15T07:55:29.145Z,1.80
2023-03-15T07:58:32.741Z,1.50
2023-03-15T08:01:36.018Z,2.10
2023-03-15T08:04:39.312Z,1.70
2023-03-15T08:07:42.615Z,2.33
2023-03-15T08:10:46.591Z,2.42
2023-03-15T08:13:50.305Z,1.97
2023-03-15T08:16:53.787Z,1.55
2023-03-15T08:19:57.178Z,2.00
2023-03-15T08:23:00.762Z,1.83
2023-03-15T08:26:04.131Z,1.67
2023-03-15T08:29:07.272Z,1.50
2023-03-15T08:32:10.724Z,1.85
2023-03-15T08:35:16.289Z,2.30
2023-03-15T08:38:19.690Z,2.25
2023-03-15T08:41:22.867Z,1.00
2023-03-15T08:44:26.103Z,0.90
2023-03-15T08:47:29.635Z,1.63
2023-03-15T08:50:33.483Z,1.20
2023-03-15T08:53:36.860Z,1.60
2023-03-15T08:56:40.108Z,1.48
2023-03-15T08:59:43.725Z,1.13
2023-03-15T09:02:49.380Z,1.40
2023-03-15T09:05:57.423Z,1.60
2023-03-15T09:09:00.691Z,4.25
2023-03-15T09:12:03.975Z,3.92
2023-03-15T09:15:08.007Z,5.15
2023-03-15T09:18:11.232Z,3.08
2023-03-15T09:21:14.841Z,1.85
2023-03-15T09:24:19.128Z,1.70
2023-03-15T09:27:22.292Z,2.92
2023-03-15T09:30:25.661Z,3.28
2023-03-15T09:33:28.890Z,3.50
2023-03-15T09:36:32.733Z,2.65
2023-03-15T09:39:35.968Z,4.85
2023-03-15T09:43:08.273Z,4.85
2023-03-15T09:46:28.955Z,2.92
2023-03-15T09:49:48.768Z,2.35
2023-03-15T09:53:07.482Z,4.50
2023-03-15T09:56:23.861Z,5.07
2023-03-15T09:59:33.991Z,4.53
2023-03-15T10:02:38.688Z,4.93
2023-03-15T10:05:44.886Z,5.35
2023-03-15T10:08:48.549Z,4.78
2023-03-15T10:11:54.927Z,4.53
2023-03-15T10:15:18.682Z,4.97
2023-03-15T10:19:07.846Z,6.03
2023-03-15T10:22:22.000Z,8.50
2023-03-15T10:25:30.160Z,6.22
2023-03-15T10:28:34.906Z,4.43
2023-03-15T10:31:44.925Z,5.63
2023-03-15T10:34:52.856Z,6.38
2023-03-15T10:37:56.396Z,6.35
2023-03-15T10:41:04.584Z,6.50
2023-03-15T10:44:20.087Z,4.32
2023-03-15T10:47:24.943Z,5.18
2023-03-15T10:53:34.385Z,5.68
2023-03-15T10:57:05.704Z,5.03
2023-03-15T11:00:33.249Z,4.85
2023-03-15T11:03:38.714Z,6.47
2023-03-15T11:06:48.992Z,7.50
2023-03-15T11:10:21.727Z,5.78
2023-03-15T11:13:27.673Z,6.55
2023-03-15T11:16:36.242Z,5.95
2023-03-15T11:19:43.448Z,6.50
2023-03-15T11:22:46.698Z,6.15
2023-03-15T11:25:50.627Z,7.28
2023-03-15T11:29:06.984Z,7.53
2023-03-15T11:32:22.872Z,8.27
2023-03-15T11:35:34.409Z,8.02
2023-03-15T11:38:44.822Z,8.25
2023-03-15T11:42:00.168Z,10.30
2023-03-15T11:45:28.648Z,12.27
2023-03-15T11:49:01.947Z,42.50
2023-03-15T11:52:06.597Z,14.85
2023-03-15T11:55:28.385Z,14.98
2023-03-15T11:58:35.860Z,14.70
2023-03-15T12:01:43.073Z,12.95
2023-03-15T12:04:49.004Z,11.25
2023-03-15T12:08:01.341Z,10.98
2023-03-15T12:11:12.842Z,12.00
2023-03-15T12:14:36.788Z,9.05
2023-03-15T12:18:11.437Z,9.45
2023-03-15T12:21:42.233Z,11.32
2023-03-15T12:24:48.838Z,9.88
2023-03-15T12:27:56.038Z,10.18
2023-03-15T12:31:02.960Z,10.73
2023-03-15T12:34:08.709Z,11.68
2023-03-15T12:37:39.921Z,9.95
2023-03-15T12:40:58.280Z,9.98
2023-03-15T12:44:39.537Z,9.70
2023-03-15T12:47:53.935Z,10.35
2023-03-15T12:51:31.614Z,10.15
2023-03-15T12:54:49.753Z,9.18
2023-03-15T12:57:57.183Z,10.43
2023-03-15T13:01:03.824Z,11.27
2023-03-15T13:04:07.400Z,7.25
2023-03-15T13:07:51.690Z,7.97
2023-03-15T13:11:16.668Z,5.78
2023-03-15T13:14:31.942Z,7.20
2023-03-15T13:17:44.199Z,5.82
2023-03-15T13:21:13.466Z,6.63
2023-03-15T13:24:32.717Z,6.13
2023-03-15T13:27:54.059Z,6.90
2023-03-15T13:30:57.560Z,6.15
2023-03-15T13:34:21.798Z,5.78
2023-03-15T13:37:26.459Z,5.85
2023-03-15T13:40:29.707Z,6.28
2023-03-15T13:43:39.547Z,5.35
2023-03-15T13:46:43.087Z,6.15
2023-03-15T13:49:46.542Z,5.22
2023-03-15T13:52:50.374Z,4.82
2023-03-15T13:55:55.254Z,5.40
2023-03-15T13:58:59.482Z,5.97
2023-03-15T14:02:05.060Z,6.05
2023-03-15T14:05:13.601Z,5.07
2023-03-15T14:08:36.653Z,4.88
2023-03-15T14:11:41.545Z,5.43
2023-03-15T14:14:52.323Z,5.20
2023-03-15T14:18:00.473Z,5.47
2023-03-15T14:21:08.976Z,4.78
2023-03-15T14:24:34.020Z,5.28
2023-03-15T14:27:37.441Z,4.88
2023-03-15T14:30:40.938Z,4.90
2023-03-15T14:33:52.277Z,4.65
2023-03-15T14:37:00.524Z,4.97
2023-03-15T14:40:15.213Z,4.55
2023-03-15T14:43:18.893Z,4.38
2023-03-15T14:46:22.337Z,4.32
2023-03-15T14:49:30.070Z,4.63
2023-03-15T14:52:33.836Z,5.18
2023-03-15T14:55:38.515Z,4.23
2023-03-15T14:58:42.704Z,4.97
2023-03-15T15:01:51.410Z,4.90
2023-03-15T15:04:54.996Z,5.18
2023-03-15T15:08:06.702Z,4.22
2023-03-15T15:11:10.527Z,4.95
2023-03-15T15:14:17.419Z,4.87
2023-03-15T15:17:20.640Z,3.35
2023-03-15T15:20:24.153Z,3.85
2023-03-15T15:23:33.082Z,4.85
2023-03-15T15:26:37.126Z,4.93
2023-03-15T15:29:40.300Z,4.15
2023-03-15T15:32:45.572Z,2.92
2023-03-15T15:35:48.874Z,3.53
2023-03-15T15:38:52.719Z,5.43
2023-03-15T15:41:56.417Z,6.47
2023-03-15T15:44:59.907Z,6.00
2023-03-15T15:48:06.641Z,4.65
2023-03-15T15:51:39.255Z,2.53
2023-03-15T15:54:42.522Z,3.55
2023-03-15T15:57:49.175Z,3.92
2023-03-15T16:00:52.497Z,3.20
2023-03-15T16:03:55.818Z,3.88
2023-03-15T16:07:02.442Z,4.50
2023-03-15T16:10:06.938Z,3.35
2023-03-15T16:13:12.271Z,2.75
2023-03-15T16:16:16.636Z,3.97
2023-03-15T16:19:19.897Z,3.70
2023-03-15T16:22:24.531Z,4.05
2023-03-15T16:28:34.287Z,3.17
2023-03-15T16:31:37.625Z,3.72
2023-03-15T16:34:42.394Z,4.75
2023-03-15T16:40:49.998Z,4.68
2023-03-15T16:43:53.315Z,10.02
2023-03-15T16:46:56.950Z,4.30
2023-03-15T16:50:00.429Z,4.30
2023-03-15T16:53:09.757Z,4.82
2023-03-15T16:56:15.446Z,3.80
2023-03-15T16:59:19.427Z,3.05
2023-03-15T17:02:28.483Z,3.17
2023-03-15T17:05:33.671Z,3.25
2023-03-15T17:08:38.041Z,3.50
2023-03-15T17:11:43.473Z,3.33
2023-03-15T17:14:47.204Z,2.97
2023-03-15T17:17:51.462Z,3.03
2023-03-15T17:20:54.856Z,2.70
2023-03-15T17:23:58.235Z,2.70
2023-03-15T17:27:01.679Z,2.38
2023-03-15T17:30:22.891Z,2.90
2023-03-15T17:33:26.692Z,7.97
2023-03-15T17:36:38.299Z,5.95
2023-03-15T17:39:43.213Z,3.42
2023-03-15T17:42:46.563Z,3.30
2023-03-15T17:45:49.992Z,3.08
2023-03-15T17:48:54.446Z,4.32
2023-03-15T17:52:00.373Z,3.10
2023-03-15T17:55:03.731Z,3.38
2023-03-15T17:58:18.914Z,3.60
2023-03-15T18:01:30.952Z,3.03
2023-03-15T18:04:34.741Z,3.60
2023-03-15T18:07:41.508Z,3.55
2023-03-15T18:10:47.969Z,3.50
2023-03-15T18:13:51.612Z,3.75
2023-03-15T18:16:56.450Z,3.72
2023-03-15T18:19:59.949Z,3.58
2023-03-15T18:23:04.841Z,3.60
2023-03-15T18:26:08.308Z,3.15
2023-03-15T18:29:11.824Z,3.25
2023-03-15T18:32:15.147Z,4.57
2023-03-15T18:35:31.034Z,4.63
2023-03-15T18:38:34.476Z,4.25
2023-03-15T18:41:37.789Z,3.05
2023-03-15T18:44:41.213Z,4.53
2023-03-15T18:47:44.584Z,4.10
2023-03-15T18:50:49.554Z,3.78
2023-03-15T18:53:53.613Z,4.03
2023-03-15T18:56:57.435Z,3.35
2023-03-15T19:00:00.886Z,3.13
2023-03-15T19:03:06.914Z,2.70
2023-03-15T19:06:12.701Z,2.72
2023-03-15T19:09:16.230Z,2.25
2023-03-15T19:12:19.917Z,3.05
2023-03-15T19:15:24.481Z,3.35
2023-03-15T19:21:30.874Z,2.58
2023-03-15T19:24:34.258Z,2.47
2023-03-15T19:27:37.602Z,1.73
2023-03-15T19:30:41.730Z,4.00
2023-03-15T19:33:45.340Z,3.50
2023-03-15T19:36:48.646Z,2.20
2023-03-15T19:39:52.116Z,2.30
2023-03-15T19:42:55.529Z,2.97
2023-03-15T19:45:59.056Z,2.20
2023-03-15T19:49:03.187Z,1.13
2023-03-15T19:52:06.611Z,2.05
2023-03-15T19:55:10.032Z,1.50
2023-03-15T19:58:13.364Z,2.38
2023-03-15T20:01:16.862Z,1.38
2023-03-15T20:04:20.315Z,2.13
2023-03-15T20:07:23.780Z,1.40
2023-03-15T20:10:27.155Z,1.92
2023-03-15T20:13:30.985Z,1.70
2023-03-15T20:16:34.413Z,2.22
2023-03-15T20:19:38.015Z,2.20
2023-03-15T20:22:42.955Z,2.20
2023-03-15T20:25:46.302Z,2.05
2023-03-15T20:28:49.684Z,3.00
2023-03-15T20:31:54.005Z,3.30
2023-03-15T20:35:01.477Z,2.00
2023-03-15T20:38:07.664Z,2.10
2023-03-15T20:41:14.493Z,2.35
2023-03-15T20:44:17.907Z,2.42
2023-03-15T20:47:21.533Z,2.10
2023-03-15T20:50:25.014Z,1.73
2023-03-15T20:53:28.443Z,1.77
2023-03-15T20:56:32.130Z,1.15
2023-03-15T20:59:35.514Z,2.08
2023-03-15T21:02:41.025Z,2.08
2023-03-15T21:05:46.575Z,1.73
2023-03-15T21:08:49.964Z,1.50
2023-03-15T21:11:53.229Z,2.42
2023-03-15T21:14:56.563Z,2.70
2023-03-15T21:17:59.895Z,2.38
2023-03-15T21:21:06.298Z,1.90
2023-03-15T21:24:09.786Z,1.13
2023-03-15T21:27:13.163Z,2.00
2023-03-15T21:30:16.636Z,2.30
2023-03-15T21:33:21.726Z,5.13
2023-03-15T21:36:25.137Z,4.20
2023-03-15T21:39:28.448Z,5.13
2023-03-15T21:42:31.761Z,5.68
2023-03-15T21:45:35.349Z,7.53
2023-03-15T21:48:39.008Z,5.15
2023-03-15T21:51:46.827Z,2.37
2023-03-15T21:54:50.132Z,4.68
2023-03-15T21:57:53.512Z,3.95
2023-03-15T22:01:00.881Z,5.22
2023-03-15T22:04:04.308Z,10.40
2023-03-15T22:07:07.853Z,5.68
2023-03-15T22:10:14.685Z,2.85
2023-03-15T22:13:18.052Z,3.63
2023-03-15T22:16:21.539Z,2.83
2023-03-15T22:19:25.109Z,3.13
2023-03-15T22:22:28.611Z,2.53
2023-03-15T22:25:32.886Z,7.27
2023-03-15T22:28:36.295Z,8.45
2023-03-15T22:31:39.587Z,6.28
2023-03-15T22:34:43.292Z,3.65
2023-03-15T22:37:46.735Z,2.75
2023-03-15T22:40:50.355Z,3.13
2023-03-15T22:43:54.235Z,2.93
2023-03-15T22:46:57.594Z,2.72
2023-03-15T22:50:00.987Z,1.85
2023-03-15T22:53:04.258Z,2.50
2023-03-15T22:56:07.934Z,2.30
2023-03-15T22:59:11.306Z,2.92
2023-03-15T23:02:14.615Z,3.83
2023-03-15T23:05:20.225Z,2.70
2023-03-15T23:08:23.854Z,1.88
2023-03-15T23:11:27.062Z,5.33
2023-03-15T23:14:30.408Z,8.02
2023-03-15T23:17:33.636Z,6.13
2023-03-15T23:20:38.310Z,3.15
2023-03-15T23:23:45.484Z,4.97
2023-03-15T23:26:48.875Z,4.63
2023-03-15T23:29:54.877Z,1.63
2023-03-15T23:33:00.270Z,3.00
2023-03-15T23:36:06.646Z,3.47
2023-03-15T23:39:10.040Z,4.63
2023-03-15T23:42:14.510Z,4.28
2023-03-15T23:45:17.800Z,4.25
2023-03-15T23:48:21.161Z,6.00
2023-03-15T23:51:24.535Z,7.38
2023-03-15T23:54:27.746Z,7.90
2023-03-15T23:57:31.037Z,8.30
